This is the latest recevied weather packets stored in our database for station/object DG4DAA-13. If no packets are shown the sender has not sent any weather packets the latest 10 day(s).
| Time | Temp. | Humidity | Pressure | Rain* | Wind** | Luminosity | Snow |
|---|---|---|---|---|---|---|---|
| 1777748908 | 19.44° C | 68% | 1017.5 hPa | 0 mm | - | - | - |
| 1777747108 | 20° C | 64% | 1016.6 hPa | 0 mm | - | - | - |
| 1777745310 | 21.67° C | 61% | 1016.6 hPa | 0 mm | - | - | - |
| 1777743508 | 22.78° C | 58% | 1016.5 hPa | 0 mm | - | - | - |
| 1777741710 | 21.67° C | 57% | 1016.9 hPa | 0 mm | - | - | - |
| 1777739908 | 22.78° C | 54% | 1017.3 hPa | 0 mm | - | - | - |
| 1777738108 | 23.33° C | 57% | 1017.8 hPa | 0 mm | - | - | - |
| 1777736308 | 23.33° C | 55% | 1017.8 hPa | 0 mm | - | - | - |
| 1777734508 | 23.89° C | 52% | 1018.2 hPa | 0 mm | - | - | - |
| 1777732708 | 25° C | 49% | 1018.6 hPa | 0 mm | - | - | - |
| 1777730908 | 25.56° C | 48% | 1018.6 hPa | 0 mm | - | - | - |
| 1777729108 | 25.56° C | 47% | 1018.8 hPa | 0 mm | - | - | - |
| 1777727308 | 25.56° C | 46% | 1019 hPa | 0 mm | - | - | - |
| 1777725509 | 26.11° C | 47% | 1019.2 hPa | 0 mm | - | - | - |
| 1777723709 | 26.11° C | 47% | 1019.5 hPa | 0 mm | - | - | - |
| 1777721909 | 25° C | 48% | 1019.9 hPa | 0 mm | - | - | - |
| 1777720109 | 24.44° C | 47% | 1020.3 hPa | 0 mm | - | - | - |
| 1777718309 | 25.56° C | 44% | 1020.5 hPa | 0 mm | - | - | - |
| 1777716509 | 25.56° C | 42% | 1020.8 hPa | 0 mm | - | - | - |
| 1777714709 | 25° C | 44% | 1021.1 hPa | 0 mm | - | - | - |
| 1777712909 | 24.44° C | 43% | 1021.3 hPa | 0 mm | - | - | - |
| 1777711109 | 23.33° C | 44% | 1021.7 hPa | 0 mm | - | - | - |
| 1777709309 | 22.22° C | 47% | 1021.8 hPa | 0 mm | - | - | - |
| 1777707509 | 21.11° C | 51% | 1022 hPa | 0 mm | - | - | - |
| 1777705709 | 20.56° C | 52% | 1021.9 hPa | 0 mm | - | - | - |
* Rain latest hour (hover to see other rain measurements)
** Current wind speed in m/s (hover to see current wind gust speed)